Time;durP1;ratioP1;P1;durP2;ratioP2;P2;SDS_P1;SDS_P2;PMS_P1;PMS_P2;Temp;Humidity;BMP_temperature;BMP_pressure;BME280_temperature;BME280_humidity;BME280_pressure;Samples;Min_cycle;Max_cycle;Signal;HPM_P1;HPM_P2
2022/12/19 00:03:13;;;;;;;18.83;6.93;;;;;;;-12.53;69.21;99611.94;4893450;28;20081;-65
2022/12/19 00:05:57;;;;;;;19.92;6.88;;;;;;;-12.23;68.84;99613.91;4902221;28;20048;-64
2022/12/19 00:08:48;;;;;;;34.22;12.32;;;;;;;-12.45;68.23;99556.28;4836027;28;20051;-63
2022/12/19 00:11:28;;;;;;;28.27;10.10;;;;;;;-11.99;67.42;99606.13;4837525;28;20079;-64
2022/12/19 00:14:08;;;;;;;30.65;11.38;;;;;;;-12.00;66.67;99612.81;4892140;28;20085;-66
2022/12/19 00:16:55;;;;;;;;;;;;;;;-11.66;68.24;99612.31;4878074;28;20061;-63
2022/12/19 00:19:49;;;;;;;27.65;8.40;;;;;;;-11.57;67.62;99614.56;4887242;28;19944;-64
2022/12/19 00:22:53;;;;;;;45.30;16.65;;;;;;;-11.78;66.18;99615.00;4881423;28;20178;-66
2022/12/19 00:25:45;;;;;;;29.58;12.27;;;;;;;-11.67;66.54;99612.25;4910286;28;20344;-63
2022/12/19 00:28:24;;;;;;;14.55;7.32;;;;;;;-11.60;66.50;99609.31;4879168;28;20076;-64
2022/12/19 00:31:45;;;;;;;21.17;7.68;;;;;;;-11.29;66.83;99612.88;4884034;28;20901;-66
2022/12/19 00:34:35;;;;;;;13.60;5.95;;;;;;;-11.02;66.78;99617.81;4898166;28;20041;-63
2022/12/19 00:37:50;;;;;;;8.73;3.67;;;;;;;-10.73;66.19;99611.94;4877761;28;20057;-65
2022/12/19 00:40:28;;;;;;;8.73;4.05;;;;;;;-10.50;65.03;99619.97;4886513;28;20878;-67
2022/12/19 00:43:15;;;;;;;3.13;2.80;;;;;;;-10.28;64.84;99627.06;4906211;28;20075;-63
2022/12/19 00:46:09;;;;;;;5.18;2.38;;;;;;;-10.24;63.51;99611.28;4906278;28;20091;-65
2022/12/19 00:48:59;;;;;;;5.88;2.33;;;;;;;-10.06;62.84;99624.94;4876049;28;20120;-67
2022/12/19 00:51:48;;;;;;;7.30;2.40;;;;;;;-9.94;62.38;99634.81;4893864;28;20332;-64
2022/12/19 00:54:41;;;;;;;6.75;2.65;;;;;;;-9.85;61.80;99634.47;4894990;28;20040;-64
2022/12/19 00:57:37;;;;;;;3.50;2.30;;;;;;;-9.92;61.26;99627.34;4876232;28;20072;-65
2022/12/19 01:00:22;;;;;;;6.20;2.58;;;;;;;-9.67;61.03;99645.56;4893321;28;20050;-64
2022/12/19 01:03:09;;;;;;;4.15;2.13;;;;;;;-9.45;60.49;99647.59;4876908;28;20381;-67
2022/12/19 01:06:08;;;;;;;4.95;2.60;;;;;;;-9.38;59.61;99638.69;4861341;28;21679;-64
2022/12/19 01:08:42;;;;;;;;;;;;;;;-9.38;59.42;99646.25;4943370;28;20040;-67
2022/12/19 01:14:32;;;;;;;4.80;2.25;;;;;;;-9.24;58.32;99650.38;4896912;28;20088;-65
2022/12/19 01:17:09;;;;;;;5.85;2.35;;;;;;;-9.16;57.95;99651.66;4893018;28;22572;-65
2022/12/19 01:19:52;;;;;;;2.60;2.08;;;;;;;-9.41;57.69;99593.84;4885143;28;20055;-64
2022/12/19 01:22:43;;;;;;;4.25;2.10;;;;;;;-8.91;57.46;99650.38;4840642;28;21124;-64
2022/12/19 01:25:45;;;;;;;5.45;2.00;;;;;;;-8.88;56.69;99642.94;4904605;28;20122;-65
2022/12/19 01:28:52;;;;;;;3.25;2.10;;;;;;;-8.83;55.85;99653.31;4891293;28;20048;-66
2022/12/19 01:31:40;;;;;;;4.47;2.03;;;;;;;-8.82;54.81;99655.91;4918653;28;20056;-65
2022/12/19 01:34:30;;;;;;;;;;;;;;;-8.56;55.14;99661.41;4893863;28;20383;-67
2022/12/19 01:37:16;;;;;;;3.75;1.88;;;;;;;-8.48;54.44;99655.06;4883489;28;19931;-65
2022/12/19 01:39:57;;;;;;;2.92;2.17;;;;;;;-8.29;54.54;99662.72;4881372;28;20048;-64
2022/12/19 01:42:51;;;;;;;3.20;2.08;;;;;;;-8.18;53.48;99664.94;4919181;28;20044;-64
2022/12/19 01:46:26;;;;;;;3.35;2.00;;;;;;;-8.10;51.29;99681.38;4908731;28;20079;-64
2022/12/19 01:49:21;;;;;;;4.63;1.92;;;;;;;-8.35;52.25;99670.03;4892210;28;20040;-64
2022/12/19 01:52:15;;;;;;;3.13;1.90;;;;;;;-8.36;52.19;99675.91;4932029;28;20041;-66
2022/12/19 01:55:00;;;;;;;3.60;1.90;;;;;;;-8.34;51.68;99666.69;4918233;28;20040;-64
2022/12/19 01:57:47;;;;;;;3.33;1.95;;;;;;;-8.16;51.86;99665.84;4899209;28;20052;-63
2022/12/19 02:00:40;;;;;;;2.55;2.22;;;;;;;-8.05;52.04;99652.03;4915135;28;20040;-64
2022/12/19 02:03:35;;;;;;;4.55;2.15;;;;;;;-7.86;51.34;99654.66;4905354;28;20060;-64
2022/12/19 02:06:17;;;;;;;3.90;2.10;;;;;;;-8.03;50.21;99661.47;4927035;28;20112;-65
2022/12/19 02:08:56;;;;;;;3.22;1.95;;;;;;;-8.26;50.51;99667.97;4865042;28;20048;-64
2022/12/19 02:11:37;;;;;;;3.38;2.08;;;;;;;-8.01;51.46;99664.09;4911800;28;20116;-64
2022/12/19 02:14:24;;;;;;;3.22;2.10;;;;;;;-7.67;52.03;99661.44;4894863;28;20049;-64
2022/12/19 02:17:38;;;;;;;5.03;2.08;;;;;;;-7.55;51.80;99670.44;4915137;28;20233;-64
2022/12/19 02:21:03;;;;;;;6.55;2.67;;;;;;;-7.52;51.37;99666.34;4940892;28;20098;-64
2022/12/19 02:24:26;;;;;;;4.40;2.17;;;;;;;-7.43;51.27;99671.88;4910970;28;20098;-64
2022/12/19 02:28:09;;;;;;;3.22;2.25;;;;;;;-7.11;52.50;99675.00;4902942;28;20072;-66
2022/12/19 02:31:06;;;;;;;3.03;2.05;;;;;;;-7.03;50.71;99668.56;4918937;28;20080;-64
2022/12/19 02:34:20;;;;;;;3.95;1.90;;;;;;;-6.84;50.71;99674.44;4932429;28;20045;-65
2022/12/19 02:37:03;;;;;;;8.02;2.63;;;;;;;-7.19;50.38;99600.13;4865266;28;20347;-64
2022/12/19 02:39:56;;;;;;;2.92;1.73;;;;;;;-6.81;50.47;99669.53;4911396;28;20057;-65
2022/12/19 02:42:46;;;;;;;3.95;1.92;;;;;;;-6.73;50.20;99670.72;4905627;28;20073;-65
2022/12/19 02:45:36;;;;;;;5.30;2.03;;;;;;;-6.80;49.88;99656.00;4912656;28;20051;-65
2022/12/19 02:51:10;;;;;;;4.03;2.10;;;;;;;-6.67;49.73;99624.38;4901963;28;20041;-62
2022/12/19 02:53:53;;;;;;;4.47;2.22;;;;;;;-6.31;48.72;99670.78;4900992;28;20044;-62
2022/12/19 02:56:44;;;;;;;2.65;1.60;;;;;;;-6.17;49.05;99662.03;4900137;28;20087;-64
2022/12/19 02:59:47;;;;;;;4.57;2.00;;;;;;;-6.11;49.06;99667.38;4933026;28;20067;-64
2022/12/19 03:05:45;;;;;;;4.65;1.80;;;;;;;-5.89;48.08;99674.16;4903565;28;20049;-66
2022/12/19 03:08:29;;;;;;;2.65;1.70;;;;;;;-5.96;46.02;99673.91;4919443;28;20110;-63
2022/12/19 03:11:14;;;;;;;2.63;1.77;;;;;;;-5.91;45.57;99675.78;4898947;28;20102;-61
2022/12/19 03:14:09;;;;;;;4.28;2.03;;;;;;;-6.11;45.04;99676.69;4923572;28;20041;-63
2022/12/19 03:16:49;;;;;;;4.30;1.83;;;;;;;-6.30;44.70;99680.13;4903746;28;20110;-62
2022/12/19 03:19:44;;;;;;;3.60;2.20;;;;;;;-6.15;45.65;99680.75;4868879;28;20059;-63
2022/12/19 03:22:54;;;;;;;4.40;1.85;;;;;;;-5.82;45.99;99680.34;4876050;28;20056;-62
2022/12/19 03:25:38;;;;;;;3.85;1.77;;;;;;;-5.52;46.21;99687.44;4910738;28;20067;-64
2022/12/19 03:28:29;;;;;;;3.40;1.80;;;;;;;-5.57;45.35;99660.94;4909344;28;20033;-64
2022/12/19 03:34:17;;;;;;;4.32;1.85;;;;;;;-5.94;44.42;99674.78;4880066;28;20063;-64
2022/12/19 03:37:07;;;;;;;2.67;1.73;;;;;;;-5.76;44.49;99700.97;4918068;28;20049;-64
2022/12/19 03:39:57;;;;;;;2.90;1.83;;;;;;;-6.11;43.52;99702.97;4872811;28;20059;-64
2022/12/19 03:45:56;;;;;;;3.45;1.65;;;;;;;-6.32;45.28;99691.91;4945903;28;20087;-63
2022/12/19 03:48:44;;;;;;;4.03;1.90;;;;;;;-6.06;44.76;99710.81;4900439;28;20311;-63
2022/12/19 03:51:33;;;;;;;6.03;1.70;;;;;;;-6.47;45.18;99707.38;4874924;28;20103;-63
2022/12/19 03:54:56;;;;;;;3.38;1.90;;;;;;;-6.44;45.91;99693.94;4901026;28;20099;-64
2022/12/19 03:57:47;;;;;;;5.15;2.10;;;;;;;-6.45;45.14;99718.50;4926793;28;20318;-64
2022/12/19 04:00:28;;;;;;;3.83;2.15;;;;;;;-6.99;46.79;99670.47;4893027;28;20195;-63
2022/12/19 04:03:15;;;;;;;3.08;1.60;;;;;;;-7.04;46.22;99659.22;4918197;28;20183;-64
2022/12/19 04:05:59;;;;;;;3.22;2.03;;;;;;;-6.75;45.89;99710.41;4904738;28;20088;-64
2022/12/19 04:09:03;;;;;;;3.22;1.58;;;;;;;-6.63;46.19;99721.13;4920720;28;20057;-63
2022/12/19 04:11:51;;;;;;;2.47;1.75;;;;;;;-6.67;45.96;99724.31;4907935;28;20040;-63
2022/12/19 04:14:32;;;;;;;3.25;2.00;;;;;;;-6.48;46.17;99725.13;4919829;28;20040;-63
2022/12/19 04:17:31;;;;;;;2.95;1.80;;;;;;;-6.68;45.22;99727.69;4896542;28;20111;-62
2022/12/19 04:20:11;;;;;;;3.60;1.85;;;;;;;-7.04;45.59;99727.78;4858871;28;20128;-65
2022/12/19 04:26:18;;;;;;;2.92;1.80;;;;;;;-7.13;46.70;99737.53;4894788;28;20199;-64
2022/12/19 04:29:24;;;;;;;3.20;2.00;;;;;;;-7.17;46.66;99735.63;4912640;28;20049;-63
2022/12/19 04:32:16;;;;;;;2.42;1.90;;;;;;;-7.26;46.74;99736.09;4907988;28;20100;-66
2022/12/19 04:35:12;;;;;;;5.57;1.95;;;;;;;-7.39;47.58;99727.06;4878364;28;20067;-67
2022/12/19 04:37:55;;;;;;;3.45;1.90;;;;;;;-7.40;47.06;99743.06;4852732;28;20366;-65
2022/12/19 04:43:15;;;;;;;2.67;1.90;;;;;;;-8.09;47.63;99756.63;4909092;28;20377;-67
2022/12/19 04:46:25;;;;;;;5.00;2.28;;;;;;;-8.27;48.18;99759.97;4881582;28;20082;-66
2022/12/19 04:49:03;;;;;;;3.10;1.70;;;;;;;-8.29;48.69;99769.16;4910800;28;20048;-64
2022/12/19 04:51:44;;;;;;;5.82;1.80;;;;;;;-8.19;48.82;99772.16;4893245;28;20037;-65
2022/12/19 04:57:21;;;;;;;5.80;2.15;;;;;;;-7.81;49.21;99774.94;4899675;28;20107;-64
2022/12/19 05:00:15;;;;;;;2.92;1.80;;;;;;;-7.77;48.51;99775.09;4921800;28;20810;-64
2022/12/19 05:03:19;;;;;;;3.63;1.90;;;;;;;-7.74;48.32;99765.09;4851347;28;20080;-65
2022/12/19 05:06:16;;;;;;;4.75;2.00;;;;;;;-7.64;47.99;99767.28;4908635;28;20049;-65
2022/12/19 05:11:53;;;;;;;6.47;2.03;;;;;;;-6.96;48.95;99782.34;4847088;28;20044;-65
2022/12/19 05:14:31;;;;;;;3.17;2.03;;;;;;;-6.76;48.57;99783.22;4899796;28;20040;-65
2022/12/19 05:17:05;;;;;;;2.85;1.75;;;;;;;-6.74;47.85;99793.44;4917821;28;20055;-64
2022/12/19 05:19:58;;;;;;;3.03;2.10;;;;;;;-6.86;47.48;99793.78;4911540;28;20056;-64
2022/12/19 05:22:52;;;;;;;4.20;1.92;;;;;;;-7.07;47.73;99798.72;4864448;28;20044;-63
2022/12/19 05:25:44;;;;;;;2.53;1.70;;;;;;;-7.14;47.78;99801.78;4895678;28;20067;-64
2022/12/19 05:28:18;;;;;;;6.55;2.25;;;;;;;-7.21;47.79;99799.78;4902531;28;20202;-64
2022/12/19 05:33:53;;;;;;;18.23;5.60;;;;;;;-7.27;48.02;99809.63;4909092;28;20040;-64
2022/12/19 05:36:45;;;;;;;6.35;2.53;;;;;;;-7.46;50.25;99808.78;4910707;28;20051;-65
2022/12/19 05:39:33;;;;;;;7.82;2.70;;;;;;;-7.39;49.73;99810.81;4911710;28;20423;-65
2022/12/19 05:45:19;;;;;;;4.50;2.03;;;;;;;-7.67;49.68;99812.78;4896095;28;20072;-64
2022/12/19 05:50:51;;;;;;;2.63;1.90;;;;;;;-7.85;50.97;99808.56;4919488;28;20063;-63
2022/12/19 05:53:40;;;;;;;3.38;2.00;;;;;;;-7.82;51.22;99820.50;4907073;28;20401;-64
2022/12/19 05:56:25;;;;;;;4.25;2.00;;;;;;;-8.05;50.15;99822.78;4918708;28;20170;-64
2022/12/19 06:02:13;;;;;;;6.65;3.38;;;;;;;-8.65;51.64;99833.19;4923661;28;20063;-63
2022/12/19 06:07:40;;;;;;;3.67;2.22;;;;;;;-8.93;53.90;99836.78;4892856;28;20049;-64
2022/12/19 06:10:35;;;;;;;4.72;2.25;;;;;;;-8.92;53.80;99851.16;4914712;28;20091;-63
2022/12/19 06:13:16;;;;;;;4.70;2.30;;;;;;;-8.87;54.38;99852.28;4862449;28;20123;-64
2022/12/19 06:22:19;;;;;;;4.28;2.30;;;;;;;-9.15;55.97;99865.97;4917521;28;20040;-62
2022/12/19 06:25:01;;;;;;;3.72;2.17;;;;;;;-9.26;56.09;99846.81;4897018;28;20065;-63
2022/12/19 06:27:50;;;;;;;7.60;2.90;;;;;;;-9.32;56.78;99855.69;4894435;28;20049;-63
2022/12/19 06:30:25;;;;;;;4.90;2.72;;;;;;;-9.80;57.50;99823.53;4844556;28;20213;-63
2022/12/19 06:33:12;;;;;;;5.07;2.13;;;;;;;-10.00;57.30;99819.88;4901576;28;20064;-64
2022/12/19 06:35:58;;;;;;;4.47;2.50;;;;;;;-9.96;57.54;99868.91;4874879;28;20058;-64
2022/12/19 06:38:38;;;;;;;6.35;3.35;;;;;;;-10.69;58.13;99764.44;4861317;28;20136;-63
2022/12/19 06:44:30;;;;;;;17.75;5.53;;;;;;;-10.42;58.82;99887.31;4903469;28;20298;-63
2022/12/19 06:47:17;;;;;;;18.88;7.10;;;;;;;-10.53;59.51;99888.31;4870989;28;20049;-63
2022/12/19 06:50:07;;;;;;;18.67;8.73;;;;;;;-10.69;60.27;99880.56;4867359;28;20054;-65
2022/12/19 06:52:56;;;;;;;22.25;8.80;;;;;;;-10.94;60.04;99888.28;4864860;28;20045;-63
2022/12/19 06:55:54;;;;;;;27.02;10.27;;;;;;;-11.12;60.13;99888.00;4896056;28;20108;-62
2022/12/19 07:02:14;;;;;;;24.95;8.93;;;;;;;-11.27;61.46;99902.16;4863433;28;20053;-63
2022/12/19 07:05:08;;;;;;;15.75;6.10;;;;;;;-11.45;61.63;99904.38;4925237;28;20075;-63
2022/12/19 07:07:59;;;;;;;11.05;4.93;;;;;;;-11.62;62.05;99904.13;4885475;28;20078;-62
2022/12/19 07:11:01;;;;;;;8.93;3.40;;;;;;;-11.81;62.70;99904.56;4924300;28;20040;-62
2022/12/19 07:13:43;;;;;;;6.22;3.10;;;;;;;-12.04;62.89;99903.06;4886355;28;20064;-62
2022/12/19 07:16:22;;;;;;;10.77;6.07;;;;;;;-12.27;63.30;99909.06;4933159;28;20073;-62
2022/12/19 07:19:11;;;;;;;15.13;8.07;;;;;;;-12.49;63.90;99913.41;4944246;28;20319;-62
2022/12/19 07:21:54;;;;;;;37.47;17.08;;;;;;;-12.63;64.28;99912.44;4917006;28;20053;-61
2022/12/19 07:27:37;;;;;;;35.03;17.27;;;;;;;-13.05;65.55;99918.75;4891365;28;20071;-61
2022/12/19 07:30:19;;;;;;;47.20;22.50;;;;;;;-13.07;65.92;99917.75;4915688;28;20055;-63
2022/12/19 07:33:04;;;;;;;26.27;15.75;;;;;;;-13.32;66.51;99925.22;4813800;28;20053;-61
2022/12/19 07:35:48;;;;;;;14.70;9.88;;;;;;;-13.60;66.53;99917.28;4873479;28;20070;-61
2022/12/19 07:38:29;;;;;;;6.88;3.55;;;;;;;-13.79;67.03;99930.16;4912946;28;20044;-62
2022/12/19 07:41:15;;;;;;;15.57;6.00;;;;;;;-14.02;67.62;99926.81;4920366;28;20081;-60
2022/12/19 07:43:53;;;;;;;27.00;9.52;;;;;;;-14.14;68.22;99935.91;4919266;28;20044;-61
2022/12/19 07:49:28;;;;;;;68.82;25.08;;;;;;;-14.16;69.24;99937.44;4903986;28;20100;-60
2022/12/19 07:52:17;;;;;;;62.25;21.88;;;;;;;-14.19;69.84;99942.22;4899737;28;20052;-61
2022/12/19 07:54:56;;;;;;;63.08;22.95;;;;;;;-14.22;70.04;99952.03;4868755;28;20049;-62
2022/12/19 07:57:38;;;;;;;33.53;13.85;;;;;;;-14.29;69.92;99945.66;4921291;28;20045;-61
2022/12/19 08:00:23;;;;;;;31.48;11.98;;;;;;;-14.66;70.20;99896.84;4880675;28;20060;-61
2022/12/19 08:03:09;;;;;;;43.53;14.00;;;;;;;-14.61;70.44;99883.91;4932032;28;20044;-62
2022/12/19 08:06:12;;;;;;;46.95;15.30;;;;;;;-14.31;70.51;99957.22;4881295;28;20044;-60
2022/12/19 08:08:52;;;;;;;98.25;29.80;;;;;;;-14.31;70.68;99957.22;4864900;28;20049;-61
2022/12/19 08:11:52;;;;;;;62.58;19.10;;;;;;;-14.42;70.39;99958.91;4912850;28;20112;-60
2022/12/19 08:15:09;;;;;;;9.90;5.20;;;;;;;-14.66;70.59;99977.13;4913452;28;20074;-61
2022/12/19 08:17:55;;;;;;;8.48;4.35;;;;;;;-14.84;71.14;99972.41;4907929;28;20100;-62
2022/12/19 08:20:49;;;;;;;4.40;3.08;;;;;;;-14.97;71.80;99969.69;4888505;28;20113;-61
2022/12/19 08:23:27;;;;;;;9.10;3.90;;;;;;;-15.00;72.31;99979.44;4916818;28;20206;-61
2022/12/19 08:26:25;;;;;;;12.35;3.92;;;;;;;-15.05;72.10;99975.72;4882456;28;20052;-60
2022/12/19 08:29:21;;;;;;;8.82;3.78;;;;;;;-15.11;72.52;99970.22;4942612;28;20044;-61
2022/12/19 08:32:01;;;;;;;10.00;5.25;;;;;;;-15.00;72.70;99971.94;4899190;28;20052;-61
2022/12/19 08:37:54;;;;;;;3.80;3.25;;;;;;;-15.10;72.30;99982.00;4842763;28;20064;-62
2022/12/19 08:40:32;;;;;;;8.45;3.92;;;;;;;-15.29;72.85;99980.53;4916857;28;20314;-61
2022/12/19 08:43:33;;;;;;;7.97;4.13;;;;;;;-15.40;73.79;99981.28;4914728;28;20064;-61
2022/12/19 08:46:16;;;;;;;10.75;4.63;;;;;;;-15.44;73.96;99974.28;4904682;28;20044;-62
2022/12/19 08:51:54;;;;;;;7.15;3.58;;;;;;;-15.32;74.65;99985.28;4890535;28;20040;-62
2022/12/19 08:54:48;;;;;;;4.00;2.95;;;;;;;-15.33;74.51;99978.50;4922137;28;20044;-61
2022/12/19 08:57:28;;;;;;;13.95;5.13;;;;;;;-15.42;74.37;99967.78;4910542;28;20306;-61
2022/12/19 09:00:14;;;;;;;12.63;5.80;;;;;;;-15.44;74.24;99984.31;4933769;28;20072;-62
2022/12/19 09:03:04;;;;;;;14.60;6.07;;;;;;;-15.50;74.45;99976.28;4874509;28;20044;-61
2022/12/19 09:06:04;;;;;;;11.52;5.70;;;;;;;-15.37;74.92;99981.53;4905783;28;20133;-61
2022/12/19 09:11:44;;;;;;;3.45;2.67;;;;;;;-15.34;75.20;99971.75;4882607;28;20079;-62
2022/12/19 09:14:40;;;;;;;7.35;3.40;;;;;;;-15.40;75.33;99996.31;4908031;28;20960;-61
2022/12/19 09:17:28;;;;;;;10.25;3.10;;;;;;;-15.16;75.94;99987.41;4911463;28;20044;-62
2022/12/19 09:20:21;;;;;;;4.90;3.05;;;;;;;-14.93;76.00;99986.72;4878790;28;20041;-61
2022/12/19 09:23:14;;;;;;;9.77;3.10;;;;;;;-14.81;75.26;99991.84;4919164;28;20112;-61
2022/12/19 09:26:04;;;;;;;8.80;3.47;;;;;;;-14.54;75.19;99988.09;4917672;28;20049;-61
2022/12/19 09:28:44;;;;;;;14.32;4.68;;;;;;;-15.31;73.46;99876.78;4921840;28;20096;-62
2022/12/19 09:31:30;;;;;;;10.95;4.93;;;;;;;-15.13;72.90;99931.63;4915662;28;20217;-62
2022/12/19 09:34:35;;;;;;;10.63;4.55;;;;;;;-14.98;72.82;99998.00;4914525;28;20040;-62
2022/12/19 09:37:23;;;;;;;18.90;5.65;;;;;;;-14.75;73.46;99987.28;4910374;28;20052;-63
2022/12/19 09:40:24;;;;;;;13.02;5.63;;;;;;;-14.75;73.04;99981.41;4903753;28;20045;-62
2022/12/19 09:43:17;;;;;;;9.93;5.15;;;;;;;-14.72;72.45;99991.66;4894947;28;20213;-62
2022/12/19 09:46:17;;;;;;;75.40;19.13;;;;;;;-14.99;72.48;99993.75;4864437;28;20586;-62
2022/12/19 09:49:18;;;;;;;319.52;56.30;;;;;;;-15.02;72.91;99991.00;4892688;28;20044;-61
2022/12/19 09:56:25;;;;;;;56.65;17.00;;;;;;;-15.12;73.14;99998.53;4823492;28;20110;-62
2022/12/19 09:59:29;;;;;;;64.57;17.80;;;;;;;-15.18;73.36;99998.03;4900944;28;20048;-61
2022/12/19 10:05:58;;;;;;;31.55;10.52;;;;;;;-15.36;73.34;99993.31;4906324;28;20073;-63
2022/12/19 10:09:16;;;;;;;14.35;7.00;;;;;;;-15.48;73.47;99987.28;4892992;28;20212;-62
2022/12/19 10:12:59;;;;;;;13.38;6.55;;;;;;;-15.55;73.97;99992.56;4890502;28;20133;-62
2022/12/19 10:16:27;;;;;;;10.32;5.63;;;;;;;-15.56;74.12;99993.31;4877940;28;20350;-62
2022/12/19 10:24:25;;;;;;;3.63;3.20;;;;;;;-16.08;75.12;99944.84;4854298;28;20270;-61
2022/12/19 10:27:49;;;;;;;3.90;2.80;;;;;;;-15.68;75.33;99996.56;4840539;28;20053;-62
2022/12/19 10:30:45;;;;;;;7.00;3.13;;;;;;;-15.50;75.43;99998.81;4843255;28;20046;-61
2022/12/19 10:33:29;;;;;;;7.00;3.42;;;;;;;-15.49;77.08;99995.56;4865058;28;20118;-62
2022/12/19 10:36:33;;;;;;;7.95;4.47;;;;;;;-15.41;76.54;100004.59;4866205;28;20133;-61
2022/12/19 10:39:58;;;;;;;46.45;12.60;;;;;;;-15.44;76.03;99995.19;4846610;28;20118;-61
2022/12/19 10:42:47;;;;;;;38.38;11.43;;;;;;;-15.38;75.41;100009.84;4795108;28;20078;-62
2022/12/19 10:45:51;;;;;;;32.80;10.00;;;;;;;-15.48;75.13;100012.34;4834586;28;20087;-62
2022/12/19 10:48:34;;;;;;;44.80;10.90;;;;;;;-15.30;75.42;100016.38;4856742;28;20105;-61
2022/12/19 10:51:22;;;;;;;79.55;16.27;;;;;;;-15.31;75.06;100011.22;4811657;28;20054;-61
2022/12/19 10:54:23;;;;;;;49.95;15.35;;;;;;;-15.33;74.60;100013.59;4837797;28;20042;-62
2022/12/19 11:01:37;;;;;;;23.77;10.90;;;;;;;-15.13;74.40;100026.88;4886472;28;20059;-62
2022/12/19 11:08:45;;;;;;;10.68;5.75;;;;;;;-14.81;74.29;100027.81;4747169;29;20080;-62
2022/12/19 11:11:58;;;;;;;5.13;4.07;;;;;;;-14.78;73.96;100038.06;4755351;29;20180;-62
2022/12/19 11:15:31;;;;;;;6.25;3.55;;;;;;;-14.47;74.89;100025.44;4786293;29;20076;-61
2022/12/19 11:18:44;;;;;;;6.22;2.60;;;;;;;-14.61;74.02;100031.91;4775646;29;20071;-60
2022/12/19 11:21:57;;;;;;;;;;;;;;;;;;;;;
2022/12/19 11:25:18;;;;;;;5.72;2.50;;;;;;;-14.95;73.14;100033.34;4729447;29;20060;-61
2022/12/19 11:28:23;;;;;;;3.75;2.53;;;;;;;-14.99;73.17;100041.38;4748190;29;20130;-60
2022/12/19 11:31:31;;;;;;;8.38;2.78;;;;;;;-15.06;72.80;100039.13;4717290;29;20057;-61
2022/12/19 11:34:44;;;;;;;11.85;4.72;;;;;;;-14.94;73.08;100050.16;4728011;29;20049;-61
2022/12/19 11:37:51;;;;;;;7.47;3.42;;;;;;;-15.03;72.64;100049.41;4708154;29;20152;-61
2022/12/19 11:43:57;;;;;;;81.20;19.05;;;;;;;-15.13;72.82;100046.91;4705005;29;20141;-61
2022/12/19 11:46:49;;;;;;;294.40;55.88;;;;;;;-15.42;73.29;100047.94;4721860;29;20561;-61
2022/12/19 11:49:44;;;;;;;108.05;26.63;;;;;;;-15.45;73.81;100047.66;4729673;29;20089;-62
2022/12/19 11:52:32;;;;;;;58.58;17.80;;;;;;;-15.42;74.42;100047.94;4728198;29;20061;-61
2022/12/19 11:55:26;;;;;;;79.22;22.90;;;;;;;-15.52;74.50;100016.25;4720176;29;20046;-61
2022/12/19 11:58:29;;;;;;;67.97;22.27;;;;;;;-15.48;74.14;100042.41;4729420;29;20074;-61
2022/12/19 12:01:26;;;;;;;82.55;25.25;;;;;;;-15.46;74.06;100048.41;4731500;29;20043;-61
2022/12/19 12:04:34;;;;;;;107.80;31.42;;;;;;;-14.96;75.97;100056.69;4726566;29;20051;-61
2022/12/19 12:07:39;;;;;;;82.25;27.88;;;;;;;-14.61;75.97;100056.09;4735998;29;20060;-61
2022/12/19 12:11:02;;;;;;;39.45;13.13;;;;;;;-14.81;74.61;100047.88;4770502;28;20089;-62
2022/12/19 12:14:26;;;;;;;26.73;9.52;;;;;;;-14.88;73.60;100065.69;4816395;28;20196;-61
2022/12/19 12:17:44;;;;;;;59.67;18.48;;;;;;;-15.06;73.12;100060.06;4848831;28;20078;-62
2022/12/19 12:20:57;;;;;;;46.38;14.02;;;;;;;-15.32;72.74;100067.97;4887414;28;20267;-61
2022/12/19 12:24:15;;;;;;;101.07;23.92;;;;;;;-15.55;73.50;100070.19;4814576;28;20387;-61
2022/12/19 12:27:30;;;;;;;33.05;9.18;;;;;;;-15.57;74.33;100074.19;4862415;28;20429;-61
2022/12/19 12:30:57;;;;;;;88.57;21.25;;;;;;;-15.58;74.87;100060.81;4887301;28;20068;-61
2022/12/19 12:45:26;;;;;;;48.10;14.82;;;;;;;-15.18;74.62;100023.09;4889583;28;20353;-60
2022/12/19 12:48:24;;;;;;;34.10;10.93;;;;;;;-14.96;73.83;100101.81;4878241;28;20041;-61
2022/12/19 12:51:15;;;;;;;28.10;9.68;;;;;;;-14.81;74.60;100098.03;4853914;28;20056;-61
2022/12/19 12:54:22;;;;;;;156.73;25.63;;;;;;;-14.78;74.02;100103.28;4865009;28;20053;-62
2022/12/19 12:57:33;;;;;;;103.88;19.77;;;;;;;-14.91;74.05;100080.47;4892924;28;20051;-61
2022/12/19 13:01:04;;;;;;;48.80;13.77;;;;;;;-14.85;73.76;100112.69;4917880;28;20049;-62
2022/12/19 13:03:57;;;;;;;145.82;25.52;;;;;;;-14.98;74.39;100108.31;4866570;28;20040;-61
2022/12/19 13:06:44;;;;;;;107.15;22.25;;;;;;;-14.79;74.65;100116.59;4870757;28;20391;-61
2022/12/19 13:09:34;;;;;;;147.00;29.65;;;;;;;-14.65;74.52;100099.25;4880001;28;20418;-61
2022/12/19 13:15:36;;;;;;;29.15;9.23;;;;;;;-14.70;74.09;100118.06;4912115;28;20040;-62
2022/12/19 13:19:04;;;;;;;16.88;6.97;;;;;;;-14.45;74.73;100126.81;4893967;28;20079;-62
2022/12/19 13:25:50;;;;;;;18.70;6.82;;;;;;;-14.47;73.42;100123.28;4914671;28;20036;-61
2022/12/19 13:28:58;;;;;;;8.77;4.78;;;;;;;-14.63;73.88;100127.84;4917313;28;20041;-61
2022/12/19 13:31:44;;;;;;;5.85;3.65;;;;;;;-14.53;74.19;100127.84;4917464;28;20241;-61
2022/12/19 13:38:12;;;;;;;6.88;4.05;;;;;;;-14.27;73.77;100134.03;4918179;28;20298;-62
2022/12/19 13:44:46;;;;;;;5.30;2.45;;;;;;;-14.21;73.72;100129.50;4900486;28;20048;-63
2022/12/19 13:47:23;;;;;;;2.45;2.25;;;;;;;-14.16;73.49;100128.22;4948363;28;20082;-61
2022/12/19 13:50:21;;;;;;;2.92;2.58;;;;;;;-14.17;73.56;100144.06;4895678;28;20281;-61
2022/12/19 13:53:25;;;;;;;6.25;3.03;;;;;;;-14.11;73.79;100137.00;4870724;28;20507;-61
2022/12/19 13:59:07;;;;;;;219.48;35.58;;;;;;;-14.04;73.83;100139.22;4895550;28;20072;-63
2022/12/19 14:01:54;;;;;;;84.20;15.50;;;;;;;-14.02;73.98;100140.22;4907153;28;20082;-62
2022/12/19 14:04:45;;;;;;;12.93;5.13;;;;;;;-13.97;73.81;100118.88;4908298;28;20052;-61
2022/12/19 14:07:43;;;;;;;15.18;4.15;;;;;;;-13.76;73.31;100141.38;4908047;28;20052;-62
2022/12/19 14:10:39;;;;;;;116.37;21.37;;;;;;;-13.81;73.46;100102.47;4918748;28;20526;-61
2022/12/19 14:17:24;;;;;;;49.03;11.07;;;;;;;-13.64;73.03;100127.25;4913583;28;20102;-61
2022/12/19 14:20:21;;;;;;;81.68;17.75;;;;;;;-13.63;72.79;100134.00;4932690;28;20063;-62
2022/12/19 14:23:31;;;;;;;19.48;5.13;;;;;;;-13.64;73.13;100137.31;4903862;28;20044;-62
2022/12/19 14:29:45;;;;;;;41.55;14.35;;;;;;;-13.62;73.00;100140.81;4877769;28;20049;-61
2022/12/19 14:32:49;;;;;;;56.20;17.98;;;;;;;-13.63;73.47;100129.00;4901283;28;20041;-63
2022/12/19 14:36:12;;;;;;;30.50;9.27;;;;;;;-13.69;73.20;100133.56;4893283;28;20048;-61
2022/12/19 14:39:09;;;;;;;14.55;4.45;;;;;;;-13.81;73.04;100112.50;4879563;28;20397;-62
2022/12/19 14:45:43;;;;;;;27.27;7.72;;;;;;;-13.40;72.37;100119.81;4876245;28;20310;-61
2022/12/19 14:49:03;;;;;;;15.73;4.82;;;;;;;-13.53;72.31;100106.31;4886726;28;20395;-65
2022/12/19 14:52:31;;;;;;;7.93;3.75;;;;;;;-13.59;73.00;100115.91;4883020;28;20057;-62
2022/12/19 14:55:51;;;;;;;5.63;3.00;;;;;;;-13.62;73.21;100117.31;4909267;28;20041;-62
2022/12/19 14:59:40;;;;;;;6.22;3.70;;;;;;;-13.70;72.86;100097.50;4859772;28;20481;-62
2022/12/19 15:02:30;;;;;;;6.13;3.45;;;;;;;-13.69;72.93;100119.34;4879926;28;20176;-61
2022/12/19 15:05:19;;;;;;;4.10;3.10;;;;;;;-13.70;73.01;100119.25;4888498;28;20068;-62
2022/12/19 15:08:35;;;;;;;4.90;2.40;;;;;;;-13.68;73.05;100117.72;4844555;28;20033;-62
2022/12/19 15:15:22;;;;;;;4.15;2.55;;;;;;;-13.43;73.19;100117.06;4901582;28;20099;-62
2022/12/19 15:18:38;;;;;;;4.15;2.58;;;;;;;-13.41;72.85;100095.44;4896146;28;20068;-62
2022/12/19 15:21:37;;;;;;;10.30;2.83;;;;;;;-13.22;72.42;100113.66;4831626;28;20067;-62
2022/12/19 15:24:26;;;;;;;2.28;2.08;;;;;;;-13.29;72.25;100116.50;4909522;28;20048;-61
2022/12/19 15:27:06;;;;;;;3.30;2.58;;;;;;;-13.44;72.59;100105.28;4940572;28;20064;-62
2022/12/19 15:33:17;;;;;;;3.30;2.40;;;;;;;-13.41;72.86;100126.47;4921739;28;20317;-62
2022/12/19 15:35:56;;;;;;;7.35;2.65;;;;;;;-13.50;72.87;100126.69;4928882;28;20376;-62
2022/12/19 15:38:40;;;;;;;3.80;2.80;;;;;;;-13.49;73.32;100128.41;4882907;28;20104;-62
2022/12/19 15:41:28;;;;;;;2.15;2.05;;;;;;;-13.41;73.25;100125.63;4889245;28;21410;-62
2022/12/19 15:44:18;;;;;;;3.63;2.30;;;;;;;-13.54;73.15;100097.03;4916230;28;20048;-62
2022/12/19 15:46:59;;;;;;;3.72;2.25;;;;;;;-13.39;72.90;100116.56;4914563;28;20052;-62
2022/12/19 15:49:52;;;;;;;3.13;2.22;;;;;;;-13.42;73.12;100133.94;4885446;28;20055;-63